sensor_id;sensor_type;location;lat;lon;timestamp;P1;durP1;ratioP1;P2;durP2;ratioP2
17614;SDS011;8926;49.720;6.576;2022-12-08T00:01:15;9.97;;;8.93;;
17614;SDS011;8926;49.720;6.576;2022-12-08T00:03:42;9.13;;;8.20;;
17614;SDS011;8926;49.720;6.576;2022-12-08T00:09:18;11.13;;;9.47;;
17614;SDS011;8926;49.720;6.576;2022-12-08T00:11:50;11.03;;;9.17;;
17614;SDS011;8926;49.720;6.576;2022-12-08T00:14:22;19.17;;;12.70;;
17614;SDS011;8926;49.720;6.576;2022-12-08T00:16:49;15.10;;;12.10;;
17614;SDS011;8926;49.720;6.576;2022-12-08T00:19:14;13.73;;;11.27;;
17614;SDS011;8926;49.720;6.576;2022-12-08T00:21:40;15.80;;;11.17;;
17614;SDS011;8926;49.720;6.576;2022-12-08T00:24:05;11.93;;;10.13;;
17614;SDS011;8926;49.720;6.576;2022-12-08T00:26:31;10.93;;;9.83;;
17614;SDS011;8926;49.720;6.576;2022-12-08T00:28:56;15.63;;;11.07;;
17614;SDS011;8926;49.720;6.576;2022-12-08T00:31:22;10.40;;;8.33;;
17614;SDS011;8926;49.720;6.576;2022-12-08T00:33:47;12.00;;;10.13;;
17614;SDS011;8926;49.720;6.576;2022-12-08T00:36:13;14.90;;;12.57;;
17614;SDS011;8926;49.720;6.576;2022-12-08T00:38:39;14.33;;;11.97;;
17614;SDS011;8926;49.720;6.576;2022-12-08T00:41:11;18.57;;;12.33;;
17614;SDS011;8926;49.720;6.576;2022-12-08T00:43:38;15.23;;;11.30;;
17614;SDS011;8926;49.720;6.576;2022-12-08T00:46:03;14.77;;;11.70;;
17614;SDS011;8926;49.720;6.576;2022-12-08T00:48:28;14.10;;;11.07;;
17614;SDS011;8926;49.720;6.576;2022-12-08T00:50:54;13.77;;;10.20;;
17614;SDS011;8926;49.720;6.576;2022-12-08T00:53:19;12.97;;;10.53;;
17614;SDS011;8926;49.720;6.576;2022-12-08T00:55:44;12.83;;;9.93;;
17614;SDS011;8926;49.720;6.576;2022-12-08T00:58:09;14.23;;;10.87;;
17614;SDS011;8926;49.720;6.576;2022-12-08T01:00:35;13.83;;;11.43;;
17614;SDS011;8926;49.720;6.576;2022-12-08T01:03:00;14.27;;;10.97;;
17614;SDS011;8926;49.720;6.576;2022-12-08T01:05:25;13.23;;;11.50;;
17614;SDS011;8926;49.720;6.576;2022-12-08T01:07:51;15.60;;;12.13;;
17614;SDS011;8926;49.720;6.576;2022-12-08T01:10:16;12.33;;;10.20;;
17614;SDS011;8926;49.720;6.576;2022-12-08T01:12:41;13.23;;;10.27;;
17614;SDS011;8926;49.720;6.576;2022-12-08T01:15:07;12.23;;;10.43;;
17614;SDS011;8926;49.720;6.576;2022-12-08T01:17:32;13.27;;;9.97;;
17614;SDS011;8926;49.720;6.576;2022-12-08T01:19:58;16.37;;;11.70;;
17614;SDS011;8926;49.720;6.576;2022-12-08T01:22:23;15.53;;;10.73;;
17614;SDS011;8926;49.720;6.576;2022-12-08T01:24:49;15.33;;;11.87;;
17614;SDS011;8926;49.720;6.576;2022-12-08T01:27:14;11.57;;;10.37;;
17614;SDS011;8926;49.720;6.576;2022-12-08T01:29:40;12.63;;;10.23;;
17614;SDS011;8926;49.720;6.576;2022-12-08T01:32:06;9.37;;;8.47;;
17614;SDS011;8926;49.720;6.576;2022-12-08T01:34:32;11.13;;;9.50;;
17614;SDS011;8926;49.720;6.576;2022-12-08T01:36:57;10.57;;;9.47;;
17614;SDS011;8926;49.720;6.576;2022-12-08T01:39:22;14.00;;;10.60;;
17614;SDS011;8926;49.720;6.576;2022-12-08T01:41:48;12.17;;;10.47;;
17614;SDS011;8926;49.720;6.576;2022-12-08T01:46:39;14.13;;;10.67;;
17614;SDS011;8926;49.720;6.576;2022-12-08T01:54:46;7.90;;;7.17;;
17614;SDS011;8926;49.720;6.576;2022-12-08T01:57:26;7.33;;;6.47;;
17614;SDS011;8926;49.720;6.576;2022-12-08T02:00:03;9.73;;;8.10;;
17614;SDS011;8926;49.720;6.576;2022-12-08T02:05:13;11.03;;;9.83;;
17614;SDS011;8926;49.720;6.576;2022-12-08T02:07:40;10.27;;;9.27;;
17614;SDS011;8926;49.720;6.576;2022-12-08T02:10:07;10.10;;;9.10;;
17614;SDS011;8926;49.720;6.576;2022-12-08T02:12:33;11.73;;;10.47;;
17614;SDS011;8926;49.720;6.576;2022-12-08T02:14:58;10.57;;;9.47;;
17614;SDS011;8926;49.720;6.576;2022-12-08T02:17:36;10.57;;;9.47;;
17614;SDS011;8926;49.720;6.576;2022-12-08T02:37:37;16.13;;;11.87;;
17614;SDS011;8926;49.720;6.576;2022-12-08T02:40:16;11.60;;;10.33;;
17614;SDS011;8926;49.720;6.576;2022-12-08T02:42:53;12.83;;;10.27;;
17614;SDS011;8926;49.720;6.576;2022-12-08T02:45:29;12.40;;;9.63;;
17614;SDS011;8926;49.720;6.576;2022-12-08T02:48:00;11.43;;;10.13;;
17614;SDS011;8926;49.720;6.576;2022-12-08T02:50:26;12.00;;;10.63;;
17614;SDS011;8926;49.720;6.576;2022-12-08T02:52:51;15.97;;;11.77;;
17614;SDS011;8926;49.720;6.576;2022-12-08T02:55:19;12.13;;;10.30;;
17614;SDS011;8926;49.720;6.576;2022-12-08T03:00:28;13.60;;;11.03;;
17614;SDS011;8926;49.720;6.576;2022-12-08T03:03:15;13.10;;;11.60;;
17614;SDS011;8926;49.720;6.576;2022-12-08T03:11:14;13.63;;;11.50;;
17614;SDS011;8926;49.720;6.576;2022-12-08T03:13:45;12.47;;;11.17;;
17614;SDS011;8926;49.720;6.576;2022-12-08T03:16:17;13.87;;;11.47;;
17614;SDS011;8926;49.720;6.576;2022-12-08T03:18:47;12.50;;;10.07;;
17614;SDS011;8926;49.720;6.576;2022-12-08T03:21:17;9.93;;;8.93;;
17614;SDS011;8926;49.720;6.576;2022-12-08T03:23:45;8.20;;;7.50;;
17614;SDS011;8926;49.720;6.576;2022-12-08T03:26:18;9.93;;;8.87;;
17614;SDS011;8926;49.720;6.576;2022-12-08T03:28:49;10.60;;;9.60;;
17614;SDS011;8926;49.720;6.576;2022-12-08T03:31:14;10.03;;;9.07;;
17614;SDS011;8926;49.720;6.576;2022-12-08T03:33:42;10.67;;;9.60;;
17614;SDS011;8926;49.720;6.576;2022-12-08T03:36:10;9.27;;;8.13;;
17614;SDS011;8926;49.720;6.576;2022-12-08T03:38:39;10.00;;;9.00;;
17614;SDS011;8926;49.720;6.576;2022-12-08T03:41:06;8.87;;;7.97;;
17614;SDS011;8926;49.720;6.576;2022-12-08T03:43:48;7.47;;;6.77;;
17614;SDS011;8926;49.720;6.576;2022-12-08T03:46:14;7.57;;;6.87;;
17614;SDS011;8926;49.720;6.576;2022-12-08T03:48:41;8.00;;;6.97;;
17614;SDS011;8926;49.720;6.576;2022-12-08T03:51:07;7.13;;;6.53;;
17614;SDS011;8926;49.720;6.576;2022-12-08T03:53:32;7.93;;;7.23;;
17614;SDS011;8926;49.720;6.576;2022-12-08T03:55:57;7.13;;;6.43;;
17614;SDS011;8926;49.720;6.576;2022-12-08T03:58:22;6.67;;;6.07;;
17614;SDS011;8926;49.720;6.576;2022-12-08T04:00:48;7.50;;;6.80;;
17614;SDS011;8926;49.720;6.576;2022-12-08T04:03:13;8.27;;;7.47;;
17614;SDS011;8926;49.720;6.576;2022-12-08T04:05:39;7.73;;;7.03;;
17614;SDS011;8926;49.720;6.576;2022-12-08T04:08:04;8.57;;;7.50;;
17614;SDS011;8926;49.720;6.576;2022-12-08T04:10:29;7.43;;;6.73;;
17614;SDS011;8926;49.720;6.576;2022-12-08T04:12:55;7.87;;;7.07;;
17614;SDS011;8926;49.720;6.576;2022-12-08T04:15:21;7.77;;;7.03;;
17614;SDS011;8926;49.720;6.576;2022-12-08T04:17:46;7.53;;;6.83;;
17614;SDS011;8926;49.720;6.576;2022-12-08T04:20:11;7.17;;;6.47;;
17614;SDS011;8926;49.720;6.576;2022-12-08T04:22:37;7.07;;;6.37;;
17614;SDS011;8926;49.720;6.576;2022-12-08T04:25:02;7.30;;;6.70;;
17614;SDS011;8926;49.720;6.576;2022-12-08T04:27:28;7.80;;;7.10;;
17614;SDS011;8926;49.720;6.576;2022-12-08T04:29:53;6.80;;;6.17;;
17614;SDS011;8926;49.720;6.576;2022-12-08T04:32:19;7.00;;;6.30;;
17614;SDS011;8926;49.720;6.576;2022-12-08T04:34:44;7.50;;;6.80;;
17614;SDS011;8926;49.720;6.576;2022-12-08T04:37:09;7.10;;;6.43;;
17614;SDS011;8926;49.720;6.576;2022-12-08T04:39:35;6.40;;;5.87;;
17614;SDS011;8926;49.720;6.576;2022-12-08T04:42:00;5.30;;;4.90;;
17614;SDS011;8926;49.720;6.576;2022-12-08T04:44:25;5.27;;;4.77;;
17614;SDS011;8926;49.720;6.576;2022-12-08T04:46:51;5.50;;;5.07;;
17614;SDS011;8926;49.720;6.576;2022-12-08T04:49:16;5.43;;;5.03;;
17614;SDS011;8926;49.720;6.576;2022-12-08T04:51:41;4.80;;;4.47;;
17614;SDS011;8926;49.720;6.576;2022-12-08T04:54:07;4.90;;;4.50;;
17614;SDS011;8926;49.720;6.576;2022-12-08T04:56:32;4.00;;;3.70;;
17614;SDS011;8926;49.720;6.576;2022-12-08T04:58:57;5.23;;;4.70;;
17614;SDS011;8926;49.720;6.576;2022-12-08T05:01:23;6.47;;;5.60;;
17614;SDS011;8926;49.720;6.576;2022-12-08T05:03:48;6.00;;;5.40;;
17614;SDS011;8926;49.720;6.576;2022-12-08T05:06:13;5.00;;;4.60;;
17614;SDS011;8926;49.720;6.576;2022-12-08T05:08:39;5.10;;;4.70;;
17614;SDS011;8926;49.720;6.576;2022-12-08T05:11:06;4.07;;;3.67;;
17614;SDS011;8926;49.720;6.576;2022-12-08T05:13:33;4.07;;;3.70;;
17614;SDS011;8926;49.720;6.576;2022-12-08T05:16:08;3.60;;;3.30;;
17614;SDS011;8926;49.720;6.576;2022-12-08T05:18:38;3.90;;;3.60;;
17614;SDS011;8926;49.720;6.576;2022-12-08T05:21:05;3.63;;;3.33;;
17614;SDS011;8926;49.720;6.576;2022-12-08T05:23:30;4.00;;;3.70;;
17614;SDS011;8926;49.720;6.576;2022-12-08T05:25:56;4.17;;;3.87;;
17614;SDS011;8926;49.720;6.576;2022-12-08T05:28:22;4.43;;;4.03;;
17614;SDS011;8926;49.720;6.576;2022-12-08T05:30:48;3.90;;;3.60;;
17614;SDS011;8926;49.720;6.576;2022-12-08T05:33:13;3.73;;;3.43;;
17614;SDS011;8926;49.720;6.576;2022-12-08T05:35:38;3.63;;;3.33;;
17614;SDS011;8926;49.720;6.576;2022-12-08T05:38:04;3.90;;;3.60;;
17614;SDS011;8926;49.720;6.576;2022-12-08T05:40:29;4.23;;;3.83;;
17614;SDS011;8926;49.720;6.576;2022-12-08T05:42:55;4.03;;;3.73;;
17614;SDS011;8926;49.720;6.576;2022-12-08T05:45:20;3.40;;;3.13;;
17614;SDS011;8926;49.720;6.576;2022-12-08T05:47:45;3.60;;;3.37;;
17614;SDS011;8926;49.720;6.576;2022-12-08T05:50:11;3.80;;;3.50;;
17614;SDS011;8926;49.720;6.576;2022-12-08T05:52:36;3.70;;;3.40;;
17614;SDS011;8926;49.720;6.576;2022-12-08T05:55:01;3.73;;;3.43;;
17614;SDS011;8926;49.720;6.576;2022-12-08T05:57:27;2.80;;;2.60;;
17614;SDS011;8926;49.720;6.576;2022-12-08T05:59:52;3.23;;;3.03;;
17614;SDS011;8926;49.720;6.576;2022-12-08T06:02:18;4.70;;;4.30;;
17614;SDS011;8926;49.720;6.576;2022-12-08T06:04:43;6.03;;;5.07;;
17614;SDS011;8926;49.720;6.576;2022-12-08T06:07:08;5.67;;;4.70;;
17614;SDS011;8926;49.720;6.576;2022-12-08T06:09:33;4.60;;;4.20;;
17614;SDS011;8926;49.720;6.576;2022-12-08T06:11:59;4.47;;;4.07;;
17614;SDS011;8926;49.720;6.576;2022-12-08T06:14:25;4.90;;;4.23;;
17614;SDS011;8926;49.720;6.576;2022-12-08T06:16:50;4.03;;;3.73;;
17614;SDS011;8926;49.720;6.576;2022-12-08T06:19:15;3.43;;;3.23;;
17614;SDS011;8926;49.720;6.576;2022-12-08T06:21:40;3.20;;;2.90;;
17614;SDS011;8926;49.720;6.576;2022-12-08T06:24:06;3.47;;;3.27;;
17614;SDS011;8926;49.720;6.576;2022-12-08T06:26:31;2.73;;;2.53;;
17614;SDS011;8926;49.720;6.576;2022-12-08T06:28:57;2.40;;;2.20;;
17614;SDS011;8926;49.720;6.576;2022-12-08T06:31:25;2.80;;;2.60;;
17614;SDS011;8926;49.720;6.576;2022-12-08T06:33:51;3.70;;;3.40;;
17614;SDS011;8926;49.720;6.576;2022-12-08T06:36:17;4.13;;;3.83;;
17614;SDS011;8926;49.720;6.576;2022-12-08T06:38:44;2.67;;;2.50;;
17614;SDS011;8926;49.720;6.576;2022-12-08T06:41:10;2.80;;;2.60;;
17614;SDS011;8926;49.720;6.576;2022-12-08T06:43:36;3.20;;;3.00;;
17614;SDS011;8926;49.720;6.576;2022-12-08T06:46:03;3.37;;;2.90;;
17614;SDS011;8926;49.720;6.576;2022-12-08T06:48:30;3.23;;;3.03;;
17614;SDS011;8926;49.720;6.576;2022-12-08T06:50:55;3.20;;;2.93;;
17614;SDS011;8926;49.720;6.576;2022-12-08T06:53:20;2.97;;;2.77;;
17614;SDS011;8926;49.720;6.576;2022-12-08T06:55:46;2.87;;;2.73;;
17614;SDS011;8926;49.720;6.576;2022-12-08T06:58:16;4.00;;;3.60;;
17614;SDS011;8926;49.720;6.576;2022-12-08T07:00:42;3.97;;;3.67;;
17614;SDS011;8926;49.720;6.576;2022-12-08T07:03:08;4.27;;;3.93;;
17614;SDS011;8926;49.720;6.576;2022-12-08T07:05:35;4.93;;;4.53;;
17614;SDS011;8926;49.720;6.576;2022-12-08T07:08:01;5.97;;;4.93;;
17614;SDS011;8926;49.720;6.576;2022-12-08T07:10:27;6.43;;;4.93;;
17614;SDS011;8926;49.720;6.576;2022-12-08T07:12:52;4.87;;;4.47;;
17614;SDS011;8926;49.720;6.576;2022-12-08T07:15:18;5.00;;;4.60;;
17614;SDS011;8926;49.720;6.576;2022-12-08T07:17:44;4.90;;;4.50;;
17614;SDS011;8926;49.720;6.576;2022-12-08T07:20:09;4.43;;;4.03;;
17614;SDS011;8926;49.720;6.576;2022-12-08T07:22:35;4.83;;;4.43;;
17614;SDS011;8926;49.720;6.576;2022-12-08T07:25:00;4.60;;;4.20;;
17614;SDS011;8926;49.720;6.576;2022-12-08T07:27:25;5.33;;;4.93;;
17614;SDS011;8926;49.720;6.576;2022-12-08T07:29:51;5.13;;;4.63;;
17614;SDS011;8926;49.720;6.576;2022-12-08T07:32:16;5.33;;;4.93;;
17614;SDS011;8926;49.720;6.576;2022-12-08T07:34:41;4.07;;;3.77;;
17614;SDS011;8926;49.720;6.576;2022-12-08T07:37:06;4.37;;;4.07;;
17614;SDS011;8926;49.720;6.576;2022-12-08T07:39:32;4.73;;;4.33;;
17614;SDS011;8926;49.720;6.576;2022-12-08T07:41:57;6.10;;;5.50;;
17614;SDS011;8926;49.720;6.576;2022-12-08T07:44:23;6.50;;;6.00;;
17614;SDS011;8926;49.720;6.576;2022-12-08T07:46:48;6.17;;;5.67;;
17614;SDS011;8926;49.720;6.576;2022-12-08T07:49:13;5.17;;;4.77;;
17614;SDS011;8926;49.720;6.576;2022-12-08T07:51:39;4.93;;;4.53;;
17614;SDS011;8926;49.720;6.576;2022-12-08T07:54:04;4.53;;;4.23;;
17614;SDS011;8926;49.720;6.576;2022-12-08T07:56:29;4.60;;;4.23;;
17614;SDS011;8926;49.720;6.576;2022-12-08T07:58:55;4.30;;;4.00;;
17614;SDS011;8926;49.720;6.576;2022-12-08T08:01:24;3.63;;;3.40;;
17614;SDS011;8926;49.720;6.576;2022-12-08T08:03:52;4.00;;;3.70;;
17614;SDS011;8926;49.720;6.576;2022-12-08T08:06:18;4.73;;;4.33;;
17614;SDS011;8926;49.720;6.576;2022-12-08T08:08:44;4.10;;;3.80;;
17614;SDS011;8926;49.720;6.576;2022-12-08T08:11:09;3.40;;;3.20;;
17614;SDS011;8926;49.720;6.576;2022-12-08T08:13:34;3.67;;;3.47;;
17614;SDS011;8926;49.720;6.576;2022-12-08T08:16:02;3.60;;;3.33;;
17614;SDS011;8926;49.720;6.576;2022-12-08T08:18:28;3.80;;;3.50;;
17614;SDS011;8926;49.720;6.576;2022-12-08T08:20:54;3.50;;;3.30;;
17614;SDS011;8926;49.720;6.576;2022-12-08T08:23:19;3.97;;;3.67;;
17614;SDS011;8926;49.720;6.576;2022-12-08T08:25:44;5.07;;;4.67;;
17614;SDS011;8926;49.720;6.576;2022-12-08T08:28:10;4.40;;;4.00;;
17614;SDS011;8926;49.720;6.576;2022-12-08T08:30:35;4.00;;;3.80;;
17614;SDS011;8926;49.720;6.576;2022-12-08T08:33:00;4.00;;;3.70;;
17614;SDS011;8926;49.720;6.576;2022-12-08T08:35:25;4.97;;;4.57;;
17614;SDS011;8926;49.720;6.576;2022-12-08T08:37:51;5.10;;;4.80;;
17614;SDS011;8926;49.720;6.576;2022-12-08T08:40:16;6.57;;;6.03;;
17614;SDS011;8926;49.720;6.576;2022-12-08T08:42:42;5.40;;;5.00;;
17614;SDS011;8926;49.720;6.576;2022-12-08T08:45:07;6.00;;;5.60;;
17614;SDS011;8926;49.720;6.576;2022-12-08T08:47:33;7.47;;;6.97;;
17614;SDS011;8926;49.720;6.576;2022-12-08T08:49:58;9.10;;;8.23;;
17614;SDS011;8926;49.720;6.576;2022-12-08T08:52:24;9.77;;;8.67;;
17614;SDS011;8926;49.720;6.576;2022-12-08T08:54:49;9.10;;;8.30;;
17614;SDS011;8926;49.720;6.576;2022-12-08T08:57:14;10.80;;;9.90;;
17614;SDS011;8926;49.720;6.576;2022-12-08T08:59:39;9.70;;;8.80;;
17614;SDS011;8926;49.720;6.576;2022-12-08T09:02:05;12.47;;;11.37;;
17614;SDS011;8926;49.720;6.576;2022-12-08T09:04:30;14.00;;;10.97;;
17614;SDS011;8926;49.720;6.576;2022-12-08T09:06:56;10.50;;;9.50;;
17614;SDS011;8926;49.720;6.576;2022-12-08T09:09:21;12.30;;;10.93;;
17614;SDS011;8926;49.720;6.576;2022-12-08T09:11:46;11.20;;;10.10;;
17614;SDS011;8926;49.720;6.576;2022-12-08T09:14:15;11.70;;;10.67;;
17614;SDS011;8926;49.720;6.576;2022-12-08T09:16:40;12.17;;;10.47;;
17614;SDS011;8926;49.720;6.576;2022-12-08T09:19:06;11.57;;;10.47;;
17614;SDS011;8926;49.720;6.576;2022-12-08T09:21:31;12.27;;;11.00;;
17614;SDS011;8926;49.720;6.576;2022-12-08T09:23:57;12.70;;;10.60;;
17614;SDS011;8926;49.720;6.576;2022-12-08T09:26:23;12.00;;;10.90;;
17614;SDS011;8926;49.720;6.576;2022-12-08T09:28:50;11.27;;;10.17;;
17614;SDS011;8926;49.720;6.576;2022-12-08T09:31:16;10.17;;;9.17;;
17614;SDS011;8926;49.720;6.576;2022-12-08T09:33:42;12.27;;;10.97;;
17614;SDS011;8926;49.720;6.576;2022-12-08T09:36:08;12.97;;;10.67;;
17614;SDS011;8926;49.720;6.576;2022-12-08T09:38:37;11.97;;;10.33;;
17614;SDS011;8926;49.720;6.576;2022-12-08T09:41:03;11.67;;;10.57;;
17614;SDS011;8926;49.720;6.576;2022-12-08T09:46:36;10.67;;;9.77;;
17614;SDS011;8926;49.720;6.576;2022-12-08T09:49:10;11.30;;;10.20;;
17614;SDS011;8926;49.720;6.576;2022-12-08T09:51:40;13.03;;;10.70;;
17614;SDS011;8926;49.720;6.576;2022-12-08T09:56:48;11.13;;;10.03;;
17614;SDS011;8926;49.720;6.576;2022-12-08T09:59:25;11.23;;;9.93;;
17614;SDS011;8926;49.720;6.576;2022-12-08T10:01:54;10.20;;;9.30;;
17614;SDS011;8926;49.720;6.576;2022-12-08T10:04:24;10.90;;;9.90;;
17614;SDS011;8926;49.720;6.576;2022-12-08T10:06:53;9.97;;;9.10;;
17614;SDS011;8926;49.720;6.576;2022-12-08T10:12:19;11.33;;;9.07;;
17614;SDS011;8926;49.720;6.576;2022-12-08T10:17:55;12.17;;;10.97;;
17614;SDS011;8926;49.720;6.576;2022-12-08T10:20:29;12.63;;;11.33;;
17614;SDS011;8926;49.720;6.576;2022-12-08T10:23:06;11.93;;;10.67;;
17614;SDS011;8926;49.720;6.576;2022-12-08T10:25:43;14.20;;;11.97;;
17614;SDS011;8926;49.720;6.576;2022-12-08T10:28:10;13.20;;;11.60;;
17614;SDS011;8926;49.720;6.576;2022-12-08T10:30:36;13.03;;;11.60;;
17614;SDS011;8926;49.720;6.576;2022-12-08T10:33:01;11.40;;;10.30;;
17614;SDS011;8926;49.720;6.576;2022-12-08T10:35:41;12.43;;;11.13;;
17614;SDS011;8926;49.720;6.576;2022-12-08T10:38:14;12.17;;;10.97;;
17614;SDS011;8926;49.720;6.576;2022-12-08T10:40:41;12.37;;;11.13;;
17614;SDS011;8926;49.720;6.576;2022-12-08T10:43:12;11.70;;;10.70;;
17614;SDS011;8926;49.720;6.576;2022-12-08T10:45:41;13.23;;;11.27;;
17614;SDS011;8926;49.720;6.576;2022-12-08T10:48:15;13.13;;;11.83;;
17614;SDS011;8926;49.720;6.576;2022-12-08T10:53:33;11.37;;;10.17;;
17614;SDS011;8926;49.720;6.576;2022-12-08T10:56:15;10.77;;;9.77;;
17614;SDS011;8926;49.720;6.576;2022-12-08T10:58:43;12.87;;;10.57;;
17614;SDS011;8926;49.720;6.576;2022-12-08T11:01:11;11.97;;;10.77;;
17614;SDS011;8926;49.720;6.576;2022-12-08T11:03:58;11.47;;;10.43;;
17614;SDS011;8926;49.720;6.576;2022-12-08T11:06:35;11.03;;;10.03;;
17614;SDS011;8926;49.720;6.576;2022-12-08T11:09:04;13.23;;;9.87;;
17614;SDS011;8926;49.720;6.576;2022-12-08T11:11:37;11.30;;;10.23;;
17614;SDS011;8926;49.720;6.576;2022-12-08T11:14:31;12.67;;;11.47;;
17614;SDS011;8926;49.720;6.576;2022-12-08T11:17:07;12.13;;;10.87;;
17614;SDS011;8926;49.720;6.576;2022-12-08T11:19:39;11.80;;;10.60;;
17614;SDS011;8926;49.720;6.576;2022-12-08T11:22:20;10.73;;;9.60;;
17614;SDS011;8926;49.720;6.576;2022-12-08T11:24:58;10.73;;;9.67;;
17614;SDS011;8926;49.720;6.576;2022-12-08T11:27:33;10.83;;;9.67;;
17614;SDS011;8926;49.720;6.576;2022-12-08T11:30:05;10.27;;;9.20;;
17614;SDS011;8926;49.720;6.576;2022-12-08T11:32:39;9.07;;;8.17;;
17614;SDS011;8926;49.720;6.576;2022-12-08T11:35:09;10.77;;;9.07;;
17614;SDS011;8926;49.720;6.576;2022-12-08T11:37:42;9.73;;;8.33;;
17614;SDS011;8926;49.720;6.576;2022-12-08T11:40:25;8.33;;;7.53;;
17614;SDS011;8926;49.720;6.576;2022-12-08T11:45:34;9.57;;;8.77;;
17614;SDS011;8926;49.720;6.576;2022-12-08T11:48:02;9.57;;;8.77;;
17614;SDS011;8926;49.720;6.576;2022-12-08T11:50:41;10.10;;;8.40;;
17614;SDS011;8926;49.720;6.576;2022-12-08T11:53:14;9.27;;;8.37;;
17614;SDS011;8926;49.720;6.576;2022-12-08T11:55:49;9.70;;;8.73;;
17614;SDS011;8926;49.720;6.576;2022-12-08T11:59:06;9.93;;;9.03;;
17614;SDS011;8926;49.720;6.576;2022-12-08T12:01:28;9.97;;;9.10;;
17614;SDS011;8926;49.720;6.576;2022-12-08T12:03:57;9.70;;;8.63;;
17614;SDS011;8926;49.720;6.576;2022-12-08T12:09:37;9.57;;;8.53;;
17614;SDS011;8926;49.720;6.576;2022-12-08T12:15:50;11.67;;;10.23;;
17614;SDS011;8926;49.720;6.576;2022-12-08T12:18:44;12.53;;;11.33;;
17614;SDS011;8926;49.720;6.576;2022-12-08T12:26:56;9.73;;;8.83;;
17614;SDS011;8926;49.720;6.576;2022-12-08T12:29:24;8.90;;;8.10;;
17614;SDS011;8926;49.720;6.576;2022-12-08T12:31:54;8.50;;;7.70;;
17614;SDS011;8926;49.720;6.576;2022-12-08T12:34:25;9.93;;;9.10;;
17614;SDS011;8926;49.720;6.576;2022-12-08T12:50:12;9.50;;;8.60;;
17614;SDS011;8926;49.720;6.576;2022-12-08T13:03:43;7.97;;;7.27;;
17614;SDS011;8926;49.720;6.576;2022-12-08T13:06:11;10.13;;;9.10;;
17614;SDS011;8926;49.720;6.576;2022-12-08T13:08:48;17.80;;;13.67;;
17614;SDS011;8926;49.720;6.576;2022-12-08T13:11:16;14.13;;;10.83;;
17614;SDS011;8926;49.720;6.576;2022-12-08T13:14:01;11.57;;;10.43;;
17614;SDS011;8926;49.720;6.576;2022-12-08T13:16:32;13.57;;;12.30;;
17614;SDS011;8926;49.720;6.576;2022-12-08T13:19:02;9.50;;;8.80;;
17614;SDS011;8926;49.720;6.576;2022-12-08T13:21:36;9.00;;;8.10;;
17614;SDS011;8926;49.720;6.576;2022-12-08T13:26:50;7.87;;;7.10;;
17614;SDS011;8926;49.720;6.576;2022-12-08T13:29:35;7.57;;;6.90;;
17614;SDS011;8926;49.720;6.576;2022-12-08T13:32:02;8.73;;;7.67;;
17614;SDS011;8926;49.720;6.576;2022-12-08T13:37:28;7.60;;;6.90;;
17614;SDS011;8926;49.720;6.576;2022-12-08T13:45:24;8.13;;;7.33;;
17614;SDS011;8926;49.720;6.576;2022-12-08T13:47:55;8.30;;;7.50;;
17614;SDS011;8926;49.720;6.576;2022-12-08T13:50:32;7.90;;;7.30;;
17614;SDS011;8926;49.720;6.576;2022-12-08T13:53:04;7.93;;;7.23;;
17614;SDS011;8926;49.720;6.576;2022-12-08T13:55:39;7.67;;;7.03;;
17614;SDS011;8926;49.720;6.576;2022-12-08T13:58:17;7.63;;;7.03;;
17614;SDS011;8926;49.720;6.576;2022-12-08T14:01:03;9.13;;;6.93;;
17614;SDS011;8926;49.720;6.576;2022-12-08T14:03:33;7.93;;;7.20;;
17614;SDS011;8926;49.720;6.576;2022-12-08T14:06:33;6.70;;;6.20;;
17614;SDS011;8926;49.720;6.576;2022-12-08T14:09:00;5.50;;;5.00;;
17614;SDS011;8926;49.720;6.576;2022-12-08T14:11:39;5.17;;;4.77;;
17614;SDS011;8926;49.720;6.576;2022-12-08T14:14:08;5.23;;;4.73;;
17614;SDS011;8926;49.720;6.576;2022-12-08T14:16:48;4.03;;;3.73;;
17614;SDS011;8926;49.720;6.576;2022-12-08T14:19:17;3.80;;;3.30;;
17614;SDS011;8926;49.720;6.576;2022-12-08T14:21:46;3.07;;;2.77;;
17614;SDS011;8926;49.720;6.576;2022-12-08T14:24:15;2.80;;;2.60;;
17614;SDS011;8926;49.720;6.576;2022-12-08T14:26:40;2.73;;;2.50;;
17614;SDS011;8926;49.720;6.576;2022-12-08T14:29:10;2.63;;;2.43;;
17614;SDS011;8926;49.720;6.576;2022-12-08T14:31:36;2.33;;;2.23;;
17614;SDS011;8926;49.720;6.576;2022-12-08T14:34:02;2.20;;;2.10;;
17614;SDS011;8926;49.720;6.576;2022-12-08T14:36:27;3.97;;;3.67;;
17614;SDS011;8926;49.720;6.576;2022-12-08T14:38:53;4.13;;;3.77;;
17614;SDS011;8926;49.720;6.576;2022-12-08T14:41:24;5.10;;;4.73;;
17614;SDS011;8926;49.720;6.576;2022-12-08T14:43:58;5.30;;;4.67;;
17614;SDS011;8926;49.720;6.576;2022-12-08T14:46:25;4.07;;;3.67;;
17614;SDS011;8926;49.720;6.576;2022-12-08T14:48:51;3.60;;;3.30;;
17614;SDS011;8926;49.720;6.576;2022-12-08T14:59:00;3.90;;;3.60;;
17614;SDS011;8926;49.720;6.576;2022-12-08T15:01:35;2.97;;;2.77;;
17614;SDS011;8926;49.720;6.576;2022-12-08T15:09:28;3.07;;;2.87;;
17614;SDS011;8926;49.720;6.576;2022-12-08T15:12:38;3.30;;;3.10;;
17614;SDS011;8926;49.720;6.576;2022-12-08T15:17:26;2.20;;;2.10;;
17614;SDS011;8926;49.720;6.576;2022-12-08T15:23:02;2.37;;;2.17;;
17614;SDS011;8926;49.720;6.576;2022-12-08T15:25:28;2.60;;;2.40;;
17614;SDS011;8926;49.720;6.576;2022-12-08T15:27:53;2.70;;;2.50;;
17614;SDS011;8926;49.720;6.576;2022-12-08T15:30:20;3.90;;;3.37;;
17614;SDS011;8926;49.720;6.576;2022-12-08T15:32:45;2.80;;;2.60;;
17614;SDS011;8926;49.720;6.576;2022-12-08T15:35:11;2.80;;;2.60;;
17614;SDS011;8926;49.720;6.576;2022-12-08T15:37:38;3.03;;;2.83;;
17614;SDS011;8926;49.720;6.576;2022-12-08T15:40:04;3.00;;;2.80;;
17614;SDS011;8926;49.720;6.576;2022-12-08T15:42:30;3.53;;;3.23;;
17614;SDS011;8926;49.720;6.576;2022-12-08T15:44:56;3.10;;;2.90;;
17614;SDS011;8926;49.720;6.576;2022-12-08T15:47:21;2.80;;;2.60;;
17614;SDS011;8926;49.720;6.576;2022-12-08T15:49:48;2.20;;;2.10;;
17614;SDS011;8926;49.720;6.576;2022-12-08T15:52:20;2.30;;;2.20;;
17614;SDS011;8926;49.720;6.576;2022-12-08T15:54:50;2.03;;;1.93;;
17614;SDS011;8926;49.720;6.576;2022-12-08T15:57:22;2.33;;;2.13;;
17614;SDS011;8926;49.720;6.576;2022-12-08T15:59:50;2.33;;;2.13;;
17614;SDS011;8926;49.720;6.576;2022-12-08T16:02:17;3.33;;;3.13;;
17614;SDS011;8926;49.720;6.576;2022-12-08T16:04:43;5.17;;;4.67;;
17614;SDS011;8926;49.720;6.576;2022-12-08T16:07:27;3.77;;;3.43;;
17614;SDS011;8926;49.720;6.576;2022-12-08T16:09:55;3.10;;;2.80;;
17614;SDS011;8926;49.720;6.576;2022-12-08T16:12:21;2.53;;;2.33;;
17614;SDS011;8926;49.720;6.576;2022-12-08T16:15:07;3.07;;;2.60;;
17614;SDS011;8926;49.720;6.576;2022-12-08T16:17:40;2.87;;;2.67;;
17614;SDS011;8926;49.720;6.576;2022-12-08T16:20:06;2.20;;;2.00;;
17614;SDS011;8926;49.720;6.576;2022-12-08T16:22:36;2.30;;;2.20;;
17614;SDS011;8926;49.720;6.576;2022-12-08T16:25:02;2.60;;;2.40;;
17614;SDS011;8926;49.720;6.576;2022-12-08T16:27:28;2.40;;;2.20;;
17614;SDS011;8926;49.720;6.576;2022-12-08T16:29:56;2.20;;;2.10;;
17614;SDS011;8926;49.720;6.576;2022-12-08T16:32:23;1.90;;;1.80;;
17614;SDS011;8926;49.720;6.576;2022-12-08T16:34:49;1.90;;;1.80;;
17614;SDS011;8926;49.720;6.576;2022-12-08T16:37:15;1.63;;;1.53;;
17614;SDS011;8926;49.720;6.576;2022-12-08T16:39:44;1.83;;;1.73;;
17614;SDS011;8926;49.720;6.576;2022-12-08T16:42:13;2.30;;;2.20;;
17614;SDS011;8926;49.720;6.576;2022-12-08T16:44:58;2.30;;;2.10;;
17614;SDS011;8926;49.720;6.576;2022-12-08T16:47:23;3.00;;;2.70;;
17614;SDS011;8926;49.720;6.576;2022-12-08T16:49:48;2.30;;;2.20;;
17614;SDS011;8926;49.720;6.576;2022-12-08T16:52:14;2.47;;;2.27;;
17614;SDS011;8926;49.720;6.576;2022-12-08T16:54:41;2.80;;;2.60;;
17614;SDS011;8926;49.720;6.576;2022-12-08T16:57:06;2.00;;;1.90;;
17614;SDS011;8926;49.720;6.576;2022-12-08T16:59:31;2.03;;;1.83;;
17614;SDS011;8926;49.720;6.576;2022-12-08T17:01:57;2.23;;;2.13;;
17614;SDS011;8926;49.720;6.576;2022-12-08T17:04:22;2.13;;;2.03;;